• Join FlightAware (Why Join?)
  • Login
  • US Flag 
04:18AM EDT


 

Airport Tracker/Info


-or-


 

Live Flight TrackerFlight Track Log ✈ UAL5829 ✈ 24-Apr-2013 ✈ KORD - CYWG

Flight Track Log - Related Links

Times and Time Zones

All times are in EDT time to prevent confusion due to time zone crossing. See the UAL5829 flight status page for this flight to view local times or setup timezone preferences in your user account.

Time Position Orientation Groundspeed Altitude Reporting Facility
EDT Latitude Longitude Course Direction KTS MPH feet Rate Location/Type
07:49PM 42.0167 -87.9500 346° North 177 204 2,600  Level Chicago TRACON
07:50PM 42.0500 -88.0000 312° West 208 239 3,900 1,020 Climbing Chicago TRACON
07:52PM 42.1311 -88.0450 338° Northwest 247 284 5,000 720 Climbing Chicago Center
07:53PM 42.2036 -88.0417 North 261 300 5,700 1,800 Climbing Chicago Center
07:54PM 42.2889 -88.0381 North 257 296 8,800 2,400 Climbing Chicago Center
07:55PM 42.5822 -88.1051 346° North  Level FlightAware Approximate
07:55PM 42.3631 -88.0300 North 264 304 10,700  Level Chicago Center
07:56PM 42.4386 -88.0242 North 271 312 12,400 1,140 Climbing Chicago Center
07:57PM 42.5194 -88.0400 352° North 299 344 13,100 960 Climbing Chicago Center
07:58PM 42.6047 -88.0744 343° North 317 365 14,400 1,380 Climbing Chicago Center
07:59PM 42.7047 -88.1161 343° North 320 368 16,000 1,200 Climbing Chicago Center
08:01PM 42.8369 -88.1703 343° North 332 382 17,700 1,080 Climbing Chicago Center
08:02PM 42.9422 -88.2139 343° North 339 390 18,900 1,200 Climbing Chicago Center
08:03PM 43.0336 -88.2506 344° North 341 392 20,200 1,020 Climbing Chicago Center
08:04PM 43.1261 -88.2947 341° North 349 402 21,100 900 Climbing Chicago Center
08:05PM 43.2058 -88.3711 325° Northwest 349 402 22,100 960 Climbing Chicago Center
08:06PM 43.2856 -88.4497 324° Northwest 352 405 23,200 1,020 Climbing Chicago Center
08:07PM 43.3661 -88.5292 324° Northwest 351 404 24,200 1,020 Climbing Chicago Center
08:08PM 43.4475 -88.6117 324° Northwest 353 406 25,300 1,020 Climbing Chicago Center
08:09PM 43.5353 -88.6978 325° Northwest 348 400 26,400 1,020 Climbing Chicago Center
08:10PM 43.6186 -88.7808 324° Northwest 347 399 27,500 960 Climbing Chicago Center
08:11PM 43.6906 -88.8533 324° Northwest 345 397 28,500 1,020 Climbing Chicago Center
08:12PM 43.7597 -88.9231 324° Northwest 343 395 29,400 1,020 Climbing Minneapolis Center
08:13PM 43.8369 -89.0006 324° Northwest 342 394 30,400 960 Climbing Minneapolis Center
08:14PM 43.9144 -89.0789 324° Northwest 343 395 31,400 780 Climbing Minneapolis Center
08:15PM 43.9797 -89.1458 324° Northwest 347 399 32,100 720 Climbing Minneapolis Center
08:16PM 44.0719 -89.2400 324° Northwest 352 405 33,000 840 Climbing Minneapolis Center
08:17PM 44.1528 -89.3228 324° Northwest 358 412 33,900 780 Climbing Minneapolis Center
08:18PM 44.2331 -89.4056 324° Northwest 359 413 34,700 780 Climbing Minneapolis Center
08:19PM 44.3261 -89.5003 324° Northwest 356 410 35,600 600 Climbing Minneapolis Center
08:20PM 44.4047 -89.5822 323° Northwest 353 406 36,000 180 Climbing Minneapolis Center
08:21PM 44.4875 -89.6661 324° Northwest 364 419 36,000  Level Minneapolis Center
08:22PM 44.5731 -89.7578 323° Northwest 381 438 36,000  Level Minneapolis Center
08:23PM 44.6644 -89.8500 324° Northwest 397 457 36,000  Level Minneapolis Center
08:24PM 44.7725 -89.9639 323° Northwest 414 476 36,000  Level Minneapolis Center
08:25PM 44.8436 -90.0375 324° Northwest 422 486 36,000  Level Minneapolis Center
08:26PM 44.9569 -90.1597 323° Northwest 426 490 36,000  Level Minneapolis Center
08:27PM 45.0503 -90.2583 323° Northwest 420 483 36,000  Level Minneapolis Center
08:28PM 45.1431 -90.3583 323° Northwest 418 481 36,000  Level Minneapolis Center
08:29PM 45.2381 -90.4614 323° Northwest 426 490 36,000  Level Minneapolis Center
08:30PM 45.3539 -90.5842 323° Northwest 430 495 36,000  Level Minneapolis Center
08:31PM 45.4467 -90.6853 323° Northwest 424 488 36,000  Level Minneapolis Center
08:32PM 45.5394 -90.7842 323° Northwest 417 480 36,000  Level Minneapolis Center
08:33PM 45.6297 -90.8842 322° Northwest 411 473 36,000  Level Minneapolis Center
08:34PM 45.7208 -90.9836 323° Northwest 410 472 36,000  Level Minneapolis Center
08:35PM 45.8103 -91.0811 323° Northwest 406 467 36,000  Level Minneapolis Center
08:36PM 45.8978 -91.1797 322° Northwest 401 461 36,000  Level Minneapolis Center
08:37PM 46.0053 -91.2983 323° Northwest 404 465 36,000  Level Minneapolis Center
08:38PM 46.0969 -91.4017 322° Northwest 411 473 36,000  Level Minneapolis Center
08:39PM 46.1731 -91.4872 322° Northwest 422 486 36,000  Level Minneapolis Center
08:41PM 46.2825 -91.6075 323° Northwest 429 494 36,000 -60 Level Minneapolis Center
08:42PM 46.3725 -91.7111 322° Northwest 419 482 35,900  Descending Minneapolis Center
08:43PM 46.4836 -91.8358 322° Northwest 421 484 36,000  Climbing Minneapolis Center
08:44PM 46.5764 -91.9392 323° Northwest 422 486 36,000  Level Minneapolis Center
08:45PM 46.6850 -92.0689 321° Northwest 422 486 36,000  Level Minneapolis Center
08:46PM 46.7758 -92.1733 322° Northwest 420 483 36,000  Level Minneapolis Center
08:47PM 46.8633 -92.2786 321° Northwest 411 473 36,000  Level Minneapolis Center
08:48PM 46.9497 -92.3867 320° Northwest 409 471 36,000  Level Minneapolis Center
08:49PM 47.0556 -92.5167 320° Northwest 413 475 36,000  Level Minneapolis Center
08:50PM 47.1439 -92.6264 320° Northwest 416 479 36,000  Level Minneapolis Center
08:51PM 47.2328 -92.7369 320° Northwest 419 482 36,000  Level Minneapolis Center
08:52PM 47.3214 -92.8486 320° Northwest 421 484 36,000  Level Minneapolis Center
08:53PM 47.4083 -92.9575 320° Northwest 419 482 36,000  Level Minneapolis Center
08:54PM 47.5075 -93.0850 319° Northwest 407 468 36,000  Level Minneapolis Center
08:55PM 47.5908 -93.1894 320° Northwest 401 461 36,000  Level Minneapolis Center
08:56PM 47.6761 -93.2969 320° Northwest 404 465 36,000  Level Minneapolis Center
08:57PM 47.7611 -93.4061 319° Northwest 405 466 36,000  Level Minneapolis Center
08:58PM 47.8650 -93.5406 319° Northwest 411 473 36,000  Level Minneapolis Center
08:59PM 47.9508 -93.6542 318° Northwest 414 476 36,000  Level Minneapolis Center
09:00PM 48.0369 -93.7647 319° Northwest 412 474 36,000  Level Minneapolis Center
09:01PM 48.1225 -93.8783 318° Northwest 413 475 36,000  Level Minneapolis Center
09:02PM 48.2069 -93.9908 318° Northwest 410 472 36,000  Level Minneapolis Center
09:04PM 48.3081 -94.1233 319° Northwest 405 466 36,000  Level Minneapolis Center
09:05PM 48.3919 -94.2342 319° Northwest 403 464 36,000  Level Minneapolis Center
09:06PM 48.4753 -94.3442 319° Northwest 401 461 36,000  Level Minneapolis Center
09:07PM 48.5572 -94.4564 318° Northwest 400 460 36,000  Level Minneapolis Center
09:08PM 48.6392 -94.5667 318° Northwest 397 457 36,000  Level Minneapolis Center
09:09PM 48.7206 -94.6769 318° Northwest 395 455 36,000  Level Minneapolis Center
09:10PM 48.8189 -94.8094 318° Northwest 395 455 36,000  Level Minneapolis Center
09:11PM 48.9006 -94.9206 318° Northwest 395 455 36,000  Level Minneapolis Center
09:11PM 48.9167 -94.9500 310° West 390 449 36,000  Level Winnipeg Center
09:12PM 49.0167 -95.0833 319° Northwest 390 449 36,000 -60 Level Winnipeg Center
09:13PM 49.1000 -95.1833 322° Northwest 390 449 35,900 -300 Descending Winnipeg Center
09:14PM 49.1667 -95.3000 311° West 390 449 35,400 -1,500 Descending Winnipeg Center
09:15PM 49.2500 -95.4000 322° Northwest 380 437 33,000 -2,640 Descending Winnipeg Center
09:16PM 49.3333 -95.5000 322° Northwest 370 426 30,200 -2,640 Descending Winnipeg Center
09:17PM 49.4000 -95.6333 308° West 370 426 27,800 -2,280 Descending Winnipeg Center
09:18PM 49.4833 -95.7333 322° Northwest 380 437 25,700 -2,160 Descending Winnipeg Center
09:19PM 49.5333 -95.8500 303° West 400 460 23,500 -2,400 Descending Winnipeg Center
09:20PM 49.5833 -96.0167 295° West 400 460 21,000 -2,280 Descending Winnipeg Center
09:21PM 49.6333 -96.1667 297° West 370 426 19,000 -1,800 Descending Winnipeg Center
09:22PM 49.6667 -96.3167 289° West 370 426 17,500 -1,620 Descending Winnipeg Center
09:23PM 49.7167 -96.4667 297° West 370 426 15,800 -1,800 Descending Winnipeg Center
09:24PM 49.7167 -96.6000 270° West 350 403 13,900 -2,400 Descending Winnipeg Center
09:25PM 49.7167 -96.7667 270° West 340 391 11,100 -2,100 Descending Winnipeg Center
09:26PM 49.7000 -96.8833 258° West 290 334 9,700 -1,920 Descending Winnipeg Center
09:27PM 49.7000 -97.0167 270° West 260 299 7,300 -2,220 Descending Winnipeg Center
09:29PM 49.8051 -97.1254 326° Northwest  Level Estimated
09:29PM 49.7000 -97.2167 326° Northwest 230 265 3,100  Level Winnipeg Center
09:30PM 49.7333 -97.2833 308° West 180 207 3,000 -240 Descending Winnipeg Center
09:31PM 49.7833 -97.2500 23° Northeast 160 184 2,700 -540 Descending Winnipeg Center
09:32PM 49.8167 -97.2500 360° North 130 150 2,000 -720 Descending Winnipeg Center
09:33PM 49.8667 -97.2333 12° North 130 150 1,300 -600 Descending Winnipeg Center
09:34PM 49.9000 -97.2333 360° North 130 150 800 -540 Descending Winnipeg Center